createdAt,value
2022-12-06T00:00:06.302Z,0.43
2022-12-06T00:01:06.294Z,0.41
2022-12-06T00:02:06.325Z,0.44
2022-12-06T00:03:06.354Z,0.47
2022-12-06T00:04:06.255Z,0.46
2022-12-06T00:05:06.237Z,0.46
2022-12-06T00:06:06.233Z,0.43
2022-12-06T00:07:06.209Z,0.41
2022-12-06T00:08:06.263Z,0.49
2022-12-06T00:09:06.184Z,0.46
2022-12-06T00:10:06.171Z,0.41
2022-12-06T00:11:06.158Z,0.47
2022-12-06T00:12:06.145Z,0.49
2022-12-06T00:13:06.142Z,0.47
2022-12-06T00:14:06.124Z,0.49
2022-12-06T00:15:06.116Z,0.47
2022-12-06T00:16:06.194Z,0.58
2022-12-06T00:17:06.081Z,0.47
2022-12-06T00:18:06.074Z,0.47
2022-12-06T00:19:06.055Z,0.46
2022-12-06T00:20:06.042Z,0.47
2022-12-06T00:21:06.027Z,0.46
2022-12-06T00:22:06.017Z,0.52
2022-12-06T00:23:06.003Z,0.50
2022-12-06T00:24:06.018Z,0.47
2022-12-06T00:25:05.979Z,0.44
2022-12-06T00:26:05.966Z,0.40
2022-12-06T00:27:05.951Z,0.36
2022-12-06T00:28:05.937Z,0.28
2022-12-06T00:29:05.933Z,0.31
2022-12-06T00:30:05.911Z,0.28
2022-12-06T00:31:05.905Z,0.28
2022-12-06T00:32:05.965Z,0.23
2022-12-06T00:33:05.878Z,0.22
2022-12-06T00:34:05.859Z,0.23
2022-12-06T00:35:05.858Z,0.23
2022-12-06T00:36:05.834Z,0.18
2022-12-06T00:37:05.833Z,0.12
2022-12-06T00:38:05.816Z,0.19
2022-12-06T00:39:05.802Z,0.18
2022-12-06T00:40:05.815Z,0.21
2022-12-06T00:41:05.773Z,0.28
2022-12-06T00:42:05.766Z,0.22
2022-12-06T00:43:05.748Z,0.25
2022-12-06T00:44:05.738Z,0.29
2022-12-06T00:45:05.716Z,0.29
2022-12-06T00:46:05.778Z,0.32
2022-12-06T00:47:05.689Z,0.34
2022-12-06T00:48:05.685Z,0.32
2022-12-06T00:49:05.676Z,0.29
2022-12-06T00:50:05.661Z,0.32
2022-12-06T00:51:05.646Z,0.32
2022-12-06T00:52:05.633Z,0.31
2022-12-06T00:53:05.624Z,0.32
2022-12-06T00:54:05.608Z,0.29
2022-12-06T00:55:05.595Z,0.25
2022-12-06T00:56:05.603Z,0.16
2022-12-06T00:57:05.564Z,0.12
2022-12-06T00:58:05.557Z,0.15
2022-12-06T00:59:05.540Z,0.08
2022-12-06T01:00:05.530Z,0.04
2022-12-06T01:01:05.603Z,0.00
2022-12-06T01:02:05.507Z,0.00
2022-12-06T01:03:05.550Z,0.03
2022-12-06T01:04:05.477Z,-0.08
2022-12-06T01:05:05.466Z,-0.03
2022-12-06T01:06:05.453Z,-0.03
2022-12-06T01:07:05.444Z,0.00
2022-12-06T01:08:05.564Z,-0.03
2022-12-06T01:09:05.417Z,0.01
2022-12-06T01:10:05.395Z,0.01
2022-12-06T01:11:05.388Z,0.07
2022-12-06T01:12:05.394Z,0.03
2022-12-06T01:13:05.364Z,-0.02
2022-12-06T01:14:05.344Z,-0.07
2022-12-06T01:15:05.337Z,-0.08
2022-12-06T01:16:05.325Z,-0.07
2022-12-06T01:17:05.327Z,-0.11
2022-12-06T01:18:05.290Z,-0.18
2022-12-06T01:19:05.282Z,-0.21
2022-12-06T01:20:05.272Z,-0.23
2022-12-06T01:21:05.250Z,-0.23
2022-12-06T01:22:05.248Z,-0.18
2022-12-06T01:23:05.226Z,-0.11
2022-12-06T01:24:05.225Z,-0.15
2022-12-06T01:25:05.206Z,-0.15
2022-12-06T01:26:05.186Z,-0.14
2022-12-06T01:27:05.177Z,-0.20
2022-12-06T01:28:05.202Z,-0.14
2022-12-06T01:29:05.156Z,-0.11
2022-12-06T01:30:05.142Z,-0.20
2022-12-06T01:31:05.154Z,-0.18
2022-12-06T01:32:05.115Z,-0.17
2022-12-06T01:33:05.099Z,-0.18
2022-12-06T01:34:05.084Z,-0.26
2022-12-06T01:35:05.071Z,-0.35
2022-12-06T01:36:05.058Z,-0.31
2022-12-06T01:37:05.048Z,-0.23
2022-12-06T01:38:06.329Z,-0.20
2022-12-06T01:39:05.025Z,-0.15
2022-12-06T01:40:05.013Z,-0.26
2022-12-06T01:41:05.002Z,-0.20
2022-12-06T01:42:04.990Z,-0.14
2022-12-06T01:43:04.980Z,-0.15
2022-12-06T01:44:04.983Z,-0.15
2022-12-06T01:45:04.950Z,-0.14
2022-12-06T01:46:04.955Z,-0.14
2022-12-06T01:47:04.916Z,-0.17
2022-12-06T01:48:04.905Z,-0.25
2022-12-06T01:49:04.890Z,-0.23
2022-12-06T01:50:04.887Z,-0.25
2022-12-06T01:51:04.872Z,-0.21
2022-12-06T01:52:04.858Z,-0.26
2022-12-06T01:53:04.845Z,-0.31
2022-12-06T01:54:04.836Z,-0.28
2022-12-06T01:55:04.814Z,-0.38
2022-12-06T01:56:04.807Z,-0.34
2022-12-06T01:57:04.793Z,-0.38
2022-12-06T01:58:04.782Z,-0.41
2022-12-06T01:59:04.761Z,-0.44
2022-12-06T02:00:04.782Z,-0.46
2022-12-06T02:01:04.777Z,-0.44
2022-12-06T02:02:04.783Z,-0.47
2022-12-06T02:03:04.796Z,-0.41
2022-12-06T02:04:06.106Z,-0.52
2022-12-06T02:05:04.696Z,-0.47
2022-12-06T02:06:04.671Z,-0.47
2022-12-06T02:07:04.668Z,-0.53
2022-12-06T02:08:04.717Z,-0.59
2022-12-06T02:09:04.642Z,-0.57
2022-12-06T02:10:04.707Z,-0.62
2022-12-06T02:11:04.613Z,-0.71
2022-12-06T02:12:04.595Z,-0.72
2022-12-06T02:13:04.614Z,-0.77
2022-12-06T02:14:04.579Z,-0.75
2022-12-06T02:15:04.560Z,-0.83
2022-12-06T02:16:04.580Z,-0.75
2022-12-06T02:17:04.665Z,-0.72
2022-12-06T02:18:04.523Z,-0.72
2022-12-06T02:19:04.507Z,-0.67
2022-12-06T02:20:04.500Z,-0.57
2022-12-06T02:21:04.480Z,-0.59
2022-12-06T02:22:04.514Z,-0.61
2022-12-06T02:23:04.477Z,-0.59
2022-12-06T02:24:04.452Z,-0.70
2022-12-06T02:25:04.464Z,-0.86
2022-12-06T02:26:04.449Z,-0.91
2022-12-06T02:27:04.404Z,-0.90
2022-12-06T02:28:04.391Z,-0.96
2022-12-06T02:29:04.381Z,-0.91
2022-12-06T02:30:04.375Z,-0.96
2022-12-06T02:31:04.635Z,-0.89
2022-12-06T02:32:04.368Z,-0.83
2022-12-06T02:33:04.331Z,-0.82
2022-12-06T02:34:04.319Z,-0.77
2022-12-06T02:35:04.308Z,-0.72
2022-12-06T02:36:04.299Z,-0.74
2022-12-06T02:37:04.274Z,-0.82
2022-12-06T02:38:06.673Z,-0.80
2022-12-06T02:39:04.253Z,-0.72
2022-12-06T02:40:04.241Z,-0.72
2022-12-06T02:41:04.231Z,-0.72
2022-12-06T02:42:04.213Z,-0.68
2022-12-06T02:43:04.196Z,-0.68
2022-12-06T02:44:04.200Z,-0.74
2022-12-06T02:45:04.174Z,-0.90
2022-12-06T02:46:04.201Z,-0.90
2022-12-06T02:47:04.153Z,-0.93
2022-12-06T02:48:04.158Z,-0.83
2022-12-06T02:49:04.122Z,-0.85
2022-12-06T02:50:04.109Z,-0.78
2022-12-06T02:51:04.096Z,-0.85
2022-12-06T02:52:04.083Z,-0.91
2022-12-06T02:53:04.079Z,-0.93
2022-12-06T02:54:04.065Z,-0.89
2022-12-06T02:55:04.051Z,-0.90
2022-12-06T02:56:04.035Z,-0.91
2022-12-06T02:57:04.031Z,-0.85
2022-12-06T02:58:04.018Z,-0.82
2022-12-06T02:59:04.012Z,-0.89
2022-12-06T03:00:03.985Z,-0.94
2022-12-06T03:01:04.056Z,-0.85
2022-12-06T03:02:04.079Z,-0.74
2022-12-06T03:03:04.037Z,-0.75
2022-12-06T03:04:03.955Z,-0.78
2022-12-06T03:05:03.923Z,-0.82
2022-12-06T03:06:03.910Z,-0.86
2022-12-06T03:07:03.901Z,-0.94
2022-12-06T03:08:03.962Z,-0.93
2022-12-06T03:09:03.875Z,-0.90
2022-12-06T03:10:04.143Z,-0.90
2022-12-06T03:11:03.849Z,-0.90
2022-12-06T03:12:03.829Z,-0.90
2022-12-06T03:13:03.813Z,-0.94
2022-12-06T03:14:03.808Z,-0.89
2022-12-06T03:15:03.795Z,-0.86
2022-12-06T03:16:03.838Z,-0.86
2022-12-06T03:17:03.768Z,-0.91
2022-12-06T03:18:03.753Z,-0.93
2022-12-06T03:19:03.746Z,-0.86
2022-12-06T03:20:03.752Z,-0.89
2022-12-06T03:21:03.721Z,-0.91
2022-12-06T03:22:03.701Z,-0.93
2022-12-06T03:23:03.686Z,-0.91
2022-12-06T03:24:03.681Z,-0.94
2022-12-06T03:25:03.674Z,-0.93
2022-12-06T03:26:03.651Z,-0.90
2022-12-06T03:27:03.650Z,-0.93
2022-12-06T03:28:03.628Z,-1.01
2022-12-06T03:29:03.616Z,-0.90
2022-12-06T03:30:03.599Z,-0.89
2022-12-06T03:31:03.670Z,-0.90
2022-12-06T03:32:03.570Z,-0.83
2022-12-06T03:33:03.568Z,-0.83
2022-12-06T03:34:03.551Z,-0.80
2022-12-06T03:35:03.544Z,-0.85
2022-12-06T03:36:03.549Z,-0.91
2022-12-06T03:37:03.516Z,-0.96
2022-12-06T03:38:03.504Z,-0.97
2022-12-06T03:39:03.493Z,-1.01
2022-12-06T03:40:03.536Z,-1.07
2022-12-06T03:41:03.464Z,-1.15
2022-12-06T03:42:03.444Z,-1.14
2022-12-06T03:43:03.448Z,-1.20
2022-12-06T03:44:03.427Z,-1.17
2022-12-06T03:45:03.415Z,-1.17
2022-12-06T03:46:03.544Z,-1.19
2022-12-06T03:47:03.435Z,-1.15
2022-12-06T03:48:03.382Z,-1.12
2022-12-06T03:49:03.354Z,-1.22
2022-12-06T03:50:03.469Z,-1.22
2022-12-06T03:51:03.329Z,-1.23
2022-12-06T03:52:03.343Z,-1.26
2022-12-06T03:53:03.313Z,-1.30
2022-12-06T03:54:03.290Z,-1.30
2022-12-06T03:55:03.294Z,-1.25
2022-12-06T03:56:03.268Z,-1.25
2022-12-06T03:57:03.263Z,-1.22
2022-12-06T03:58:03.239Z,-1.11
2022-12-06T03:59:03.226Z,-1.15
2022-12-06T04:00:03.223Z,-1.11
2022-12-06T04:01:03.209Z,-1.14
2022-12-06T04:02:03.241Z,-1.08
2022-12-06T04:03:03.178Z,-1.11
2022-12-06T04:04:03.220Z,-1.11
2022-12-06T04:05:03.167Z,-1.19
2022-12-06T04:06:03.136Z,-1.12
2022-12-06T04:07:03.124Z,-1.12
2022-12-06T04:08:03.201Z,-1.09
2022-12-06T04:09:03.100Z,-1.11
2022-12-06T04:10:03.617Z,-1.11
2022-12-06T04:11:03.074Z,-1.11
2022-12-06T04:12:03.061Z,-1.07
2022-12-06T04:13:03.059Z,-1.12
2022-12-06T04:14:03.041Z,-1.11
2022-12-06T04:15:03.028Z,-1.20
2022-12-06T04:16:03.069Z,-1.15
2022-12-06T04:17:03.007Z,-1.12
2022-12-06T04:18:02.993Z,-1.09
2022-12-06T04:19:02.976Z,-1.08
2022-12-06T04:20:03.221Z,-1.08
2022-12-06T04:21:02.945Z,-1.08
2022-12-06T04:22:02.949Z,-1.08
2022-12-06T04:23:02.918Z,-1.14
2022-12-06T04:24:02.941Z,-1.11
2022-12-06T04:25:02.893Z,-1.07
2022-12-06T04:26:02.888Z,-1.04
2022-12-06T04:27:02.875Z,-1.01
2022-12-06T04:28:02.854Z,-0.99
2022-12-06T04:29:02.848Z,-0.86
2022-12-06T04:30:02.839Z,-0.82
2022-12-06T04:31:02.895Z,-0.78
2022-12-06T04:32:02.876Z,-0.78
2022-12-06T04:33:02.791Z,-0.78
2022-12-06T04:34:02.785Z,-0.77
2022-12-06T04:35:02.766Z,-0.74
2022-12-06T04:36:02.754Z,-0.70
2022-12-06T04:37:02.752Z,-0.65
2022-12-06T04:38:02.733Z,-0.70
2022-12-06T04:39:02.724Z,-0.68
2022-12-06T04:40:03.101Z,-0.75
2022-12-06T04:41:02.694Z,-0.72
2022-12-06T04:42:02.679Z,-0.64
2022-12-06T04:43:02.668Z,-0.65
2022-12-06T04:44:02.659Z,-0.70
2022-12-06T04:45:02.645Z,-0.72
2022-12-06T04:46:02.629Z,-0.68
2022-12-06T04:47:02.652Z,-0.61
2022-12-06T04:48:02.604Z,-0.59
2022-12-06T04:49:02.589Z,-0.53
2022-12-06T04:50:02.832Z,-0.46
2022-12-06T04:51:02.559Z,-0.53
2022-12-06T04:52:02.551Z,-0.44
2022-12-06T04:53:02.543Z,-0.47
2022-12-06T04:54:02.528Z,-0.49
2022-12-06T04:55:02.510Z,-0.46
2022-12-06T04:56:02.522Z,-0.47
2022-12-06T04:57:02.492Z,-0.50
2022-12-06T04:58:02.482Z,-0.54
2022-12-06T04:59:02.466Z,-0.57
2022-12-06T05:00:02.798Z,-0.56
2022-12-06T05:01:02.544Z,-0.56
2022-12-06T05:02:02.421Z,-0.50
2022-12-06T05:03:02.410Z,-0.50
2022-12-06T05:04:02.443Z,-0.53
2022-12-06T05:05:02.382Z,-0.47
2022-12-06T05:06:02.379Z,-0.47
2022-12-06T05:07:02.366Z,-0.50
2022-12-06T05:08:02.398Z,-0.49
2022-12-06T05:09:02.341Z,-0.47
2022-12-06T05:10:02.799Z,-0.47
2022-12-06T05:11:02.314Z,-0.44
2022-12-06T05:12:02.318Z,-0.39
2022-12-06T05:13:02.283Z,-0.41
2022-12-06T05:14:02.270Z,-0.44
2022-12-06T05:15:02.252Z,-0.32
2022-12-06T05:16:02.306Z,-0.32
2022-12-06T05:17:02.228Z,-0.32
2022-12-06T05:18:02.227Z,-0.32
2022-12-06T05:19:02.202Z,-0.25
2022-12-06T05:20:02.515Z,-0.28
2022-12-06T05:21:02.173Z,-0.28
2022-12-06T05:22:02.190Z,-0.26
2022-12-06T05:23:02.148Z,-0.21
2022-12-06T05:24:02.134Z,-0.29
2022-12-06T05:25:02.128Z,-0.32
2022-12-06T05:26:02.119Z,-0.26
2022-12-06T05:27:02.097Z,-0.29
2022-12-06T05:28:02.114Z,-0.28
2022-12-06T05:29:02.073Z,-0.31
2022-12-06T05:30:02.271Z,-0.21
2022-12-06T05:31:02.100Z,-0.21
2022-12-06T05:32:02.145Z,-0.21
2022-12-06T05:33:02.020Z,-0.21
2022-12-06T05:34:02.008Z,-0.15
2022-12-06T05:35:02.005Z,-0.25
2022-12-06T05:36:01.983Z,-0.26
2022-12-06T05:37:01.976Z,-0.20
2022-12-06T05:38:01.962Z,-0.20
2022-12-06T05:39:01.951Z,-0.18
2022-12-06T05:40:02.656Z,-0.23
2022-12-06T05:41:01.925Z,-0.29
2022-12-06T05:42:01.904Z,-0.18
2022-12-06T05:43:01.912Z,-0.25
2022-12-06T05:44:01.909Z,-0.18
2022-12-06T05:45:01.869Z,-0.20
2022-12-06T05:46:01.940Z,-0.20
2022-12-06T05:47:01.849Z,-0.14
2022-12-06T05:48:01.840Z,-0.15
2022-12-06T05:49:01.816Z,-0.14
2022-12-06T05:50:02.159Z,-0.06
2022-12-06T05:51:01.792Z,-0.07
2022-12-06T05:52:04.138Z,-0.10
2022-12-06T05:53:01.774Z,-0.08
2022-12-06T05:54:01.759Z,-0.08
2022-12-06T05:55:01.740Z,-0.06
2022-12-06T05:56:01.731Z,-0.02
2022-12-06T05:57:01.724Z,0.03
2022-12-06T05:58:01.701Z,0.04
2022-12-06T05:59:01.703Z,0.00
2022-12-06T06:00:02.117Z,-0.02
2022-12-06T06:01:01.689Z,-0.08
2022-12-06T06:02:01.758Z,-0.08
2022-12-06T06:03:01.831Z,-0.02
2022-12-06T06:04:01.626Z,-0.07
2022-12-06T06:05:01.614Z,-0.07
2022-12-06T06:06:01.599Z,-0.02
2022-12-06T06:07:01.589Z,0.00
2022-12-06T06:08:01.681Z,-0.03
2022-12-06T06:09:01.566Z,-0.06
2022-12-06T06:10:01.887Z,-0.07
2022-12-06T06:11:01.544Z,0.00
2022-12-06T06:12:01.522Z,-0.06
2022-12-06T06:13:01.515Z,0.00
2022-12-06T06:14:01.496Z,0.03
2022-12-06T06:15:01.490Z,0.01
2022-12-06T06:16:01.496Z,-0.02
2022-12-06T06:17:01.504Z,-0.03
2022-12-06T06:18:01.447Z,-0.06
2022-12-06T06:19:01.432Z,-0.02
2022-12-06T06:20:01.723Z,-0.06
2022-12-06T06:21:01.406Z,-0.06
2022-12-06T06:22:01.399Z,-0.06
2022-12-06T06:23:01.380Z,-0.07
2022-12-06T06:24:01.371Z,-0.14
2022-12-06T06:25:01.361Z,-0.15
2022-12-06T06:26:01.343Z,-0.20
2022-12-06T06:27:01.330Z,-0.20
2022-12-06T06:28:01.316Z,-0.18
2022-12-06T06:29:01.302Z,-0.15
2022-12-06T06:30:01.616Z,-0.17
2022-12-06T06:31:01.277Z,-0.23
2022-12-06T06:32:01.425Z,-0.21
2022-12-06T06:33:01.257Z,-0.18
2022-12-06T06:34:01.245Z,-0.17
2022-12-06T06:35:01.226Z,-0.17
2022-12-06T06:36:01.216Z,-0.15
2022-12-06T06:37:01.199Z,-0.11
2022-12-06T06:38:01.194Z,-0.15
2022-12-06T06:39:01.184Z,-0.13
2022-12-06T06:40:01.359Z,-0.15
2022-12-06T06:41:01.148Z,-0.14
2022-12-06T06:42:01.134Z,-0.17
2022-12-06T06:43:01.134Z,-0.07
2022-12-06T06:44:01.119Z,-0.03
2022-12-06T06:45:01.104Z,-0.03
2022-12-06T06:46:01.224Z,-0.02
2022-12-06T06:47:01.072Z,0.03
2022-12-06T06:48:01.089Z,0.00
2022-12-06T06:49:01.048Z,-0.06
2022-12-06T06:50:01.364Z,0.01
2022-12-06T06:51:01.022Z,0.03
2022-12-06T06:52:01.004Z,0.01
2022-12-06T06:53:01.002Z,0.03
2022-12-06T06:54:00.996Z,0.08
2022-12-06T06:55:00.975Z,0.04
2022-12-06T06:56:00.959Z,0.07
2022-12-06T06:57:00.946Z,0.03
2022-12-06T06:58:00.931Z,0.03
2022-12-06T06:59:00.913Z,0.04
2022-12-06T07:00:01.241Z,0.00
2022-12-06T07:01:00.920Z,0.03
2022-12-06T07:02:00.934Z,-0.07
2022-12-06T07:03:00.978Z,0.01
2022-12-06T07:04:00.892Z,-0.06
2022-12-06T07:05:00.840Z,-0.03
2022-12-06T07:06:00.840Z,-0.08
2022-12-06T07:07:00.831Z,-0.08
2022-12-06T07:08:00.838Z,-0.02
2022-12-06T07:09:00.794Z,0.01
2022-12-06T07:10:01.075Z,-0.02
2022-12-06T07:11:00.761Z,0.00
2022-12-06T07:12:00.760Z,-0.02
2022-12-06T07:13:00.749Z,0.00
2022-12-06T07:14:00.736Z,0.00
2022-12-06T07:15:00.712Z,-0.02
2022-12-06T07:16:00.706Z,0.05
2022-12-06T07:17:00.742Z,0.05
2022-12-06T07:18:00.681Z,0.08
2022-12-06T07:19:04.636Z,0.11
2022-12-06T07:20:02.067Z,0.10
2022-12-06T07:21:00.635Z,0.16
2022-12-06T07:22:00.628Z,0.16
2022-12-06T07:23:00.616Z,0.08
2022-12-06T07:24:00.600Z,0.18
2022-12-06T07:25:00.603Z,0.15
2022-12-06T07:26:00.574Z,0.29
2022-12-06T07:27:00.557Z,0.23
2022-12-06T07:28:00.559Z,0.25
2022-12-06T07:29:00.546Z,0.22
2022-12-06T07:30:00.966Z,0.28
2022-12-06T07:31:00.570Z,0.31
2022-12-06T07:32:00.506Z,0.29
2022-12-06T07:33:00.490Z,0.29
2022-12-06T07:34:00.480Z,0.29
2022-12-06T07:35:00.464Z,0.28
2022-12-06T07:36:11.979Z,0.28
2022-12-06T07:37:01.461Z,0.31
2022-12-06T07:38:00.424Z,0.36
2022-12-06T07:39:00.415Z,0.31
2022-12-06T07:40:00.791Z,0.28
2022-12-06T07:41:05.029Z,0.32
2022-12-06T07:42:00.376Z,0.34
2022-12-06T07:43:00.358Z,0.28
2022-12-06T07:44:00.347Z,0.31
2022-12-06T07:45:02.404Z,0.23
2022-12-06T07:46:00.370Z,0.32
2022-12-06T07:47:00.311Z,0.29
2022-12-06T07:48:00.298Z,0.36
2022-12-06T07:49:00.279Z,0.36
2022-12-06T07:50:00.635Z,0.34
2022-12-06T07:51:00.247Z,0.39
2022-12-06T07:52:00.279Z,0.40
2022-12-06T07:53:00.223Z,0.39
2022-12-06T07:54:00.209Z,0.39
2022-12-06T07:55:00.209Z,0.28
2022-12-06T07:56:00.186Z,0.36
2022-12-06T07:57:00.180Z,0.39
2022-12-06T07:58:00.173Z,0.43
2022-12-06T07:59:00.159Z,0.43
2022-12-06T08:00:00.628Z,0.52
2022-12-06T08:01:00.235Z,0.47
2022-12-06T08:02:00.293Z,0.52
2022-12-06T08:03:00.108Z,0.50
2022-12-06T08:04:00.206Z,0.56
2022-12-06T08:05:00.085Z,0.62
2022-12-06T08:06:00.075Z,0.62
2022-12-06T08:07:00.057Z,0.58
2022-12-06T08:08:00.153Z,0.65
2022-12-06T08:09:00.025Z,0.65
2022-12-06T08:10:00.341Z,0.65
2022-12-06T08:11:00.006Z,0.63
2022-12-06T08:11:59.989Z,0.62
2022-12-06T08:12:59.976Z,0.66
2022-12-06T08:13:59.964Z,0.68
2022-12-06T08:15:00.356Z,0.65
2022-12-06T08:16:00.055Z,0.63
2022-12-06T08:16:59.911Z,0.58
2022-12-06T08:17:59.907Z,0.63
2022-12-06T08:18:59.894Z,0.68
2022-12-06T08:20:00.259Z,0.69
2022-12-06T08:20:59.867Z,0.69
2022-12-06T08:21:59.853Z,0.66
2022-12-06T08:22:59.841Z,0.65
2022-12-06T08:23:59.864Z,0.73
2022-12-06T08:24:59.822Z,0.69
2022-12-06T08:25:59.803Z,0.74
2022-12-06T08:26:59.797Z,0.76
2022-12-06T08:27:59.781Z,0.78
2022-12-06T08:28:59.768Z,0.74
2022-12-06T08:30:00.131Z,0.76
2022-12-06T08:31:03.020Z,0.77
2022-12-06T08:31:59.727Z,0.87
2022-12-06T08:32:59.719Z,0.88
2022-12-06T08:33:59.705Z,0.91
2022-12-06T08:34:59.705Z,0.92
2022-12-06T08:35:59.683Z,0.88
2022-12-06T08:37:03.372Z,0.94
2022-12-06T08:37:59.663Z,0.91
2022-12-06T08:38:59.638Z,0.92
2022-12-06T08:40:00.092Z,0.96
2022-12-06T08:40:59.613Z,0.94
2022-12-06T08:41:59.600Z,0.87
2022-12-06T08:42:59.594Z,0.88
2022-12-06T08:43:59.583Z,0.92
2022-12-06T08:44:59.568Z,0.94
2022-12-06T08:45:59.667Z,0.99
2022-12-06T08:46:59.535Z,0.96
2022-12-06T08:47:59.529Z,0.99
2022-12-06T08:48:59.521Z,0.98
2022-12-06T08:49:59.821Z,1.02
2022-12-06T08:50:59.489Z,1.01
2022-12-06T08:51:59.505Z,1.06
2022-12-06T08:52:59.467Z,0.99
2022-12-06T08:53:59.447Z,1.01
2022-12-06T08:54:59.441Z,0.96
2022-12-06T08:56:02.764Z,1.01
2022-12-06T08:56:59.415Z,0.98
2022-12-06T08:57:59.401Z,0.99
2022-12-06T08:58:59.382Z,1.04
2022-12-06T08:59:59.743Z,1.06
2022-12-06T09:00:59.378Z,1.16
2022-12-06T09:01:59.364Z,1.17
2022-12-06T09:02:59.330Z,1.22
2022-12-06T09:03:59.460Z,1.22
2022-12-06T09:04:59.387Z,1.26
2022-12-06T09:05:59.305Z,1.32
2022-12-06T09:06:59.279Z,1.35
2022-12-06T09:07:59.327Z,1.32
2022-12-06T09:08:59.264Z,1.37
2022-12-06T09:09:59.647Z,1.31
2022-12-06T09:10:59.236Z,1.41
2022-12-06T09:11:59.248Z,1.38
2022-12-06T09:12:59.206Z,1.50
2022-12-06T09:13:59.192Z,1.49
2022-12-06T09:14:59.187Z,1.52
2022-12-06T09:15:59.223Z,1.45
2022-12-06T09:16:59.164Z,1.45
2022-12-06T09:17:59.156Z,1.44
2022-12-06T09:18:59.141Z,1.48
2022-12-06T09:20:05.314Z,1.50
2022-12-06T09:21:00.140Z,1.42
2022-12-06T09:21:59.097Z,1.53
2022-12-06T09:22:59.085Z,1.50
2022-12-06T09:23:59.072Z,1.56
2022-12-06T09:24:59.050Z,1.59
2022-12-06T09:25:59.052Z,1.62
2022-12-06T09:26:59.027Z,1.66
2022-12-06T09:27:59.039Z,1.68
2022-12-06T09:28:59.006Z,1.77
2022-12-06T09:29:59.427Z,1.73
2022-12-06T09:30:59.082Z,1.78
2022-12-06T09:31:58.966Z,1.84
2022-12-06T09:32:58.968Z,1.78
2022-12-06T09:33:58.942Z,1.81
2022-12-06T09:34:58.920Z,1.81
2022-12-06T09:35:58.914Z,1.84
2022-12-06T09:36:58.906Z,1.73
2022-12-06T09:37:58.898Z,1.77
2022-12-06T09:38:58.876Z,1.76
2022-12-06T09:39:59.318Z,1.70
2022-12-06T09:40:58.852Z,1.74
2022-12-06T09:41:58.834Z,1.81
2022-12-06T09:42:58.827Z,1.88
2022-12-06T09:43:58.853Z,1.84
2022-12-06T09:44:58.800Z,1.85
2022-12-06T09:45:58.827Z,1.91
2022-12-06T09:46:58.826Z,1.97
2022-12-06T09:47:58.757Z,1.95
2022-12-06T09:48:58.753Z,2.02
2022-12-06T09:49:59.004Z,2.04
2022-12-06T09:50:58.726Z,2.04
2022-12-06T09:51:58.715Z,2.07
2022-12-06T09:52:58.695Z,2.02
2022-12-06T09:53:58.692Z,2.06
2022-12-06T09:55:00.247Z,2.06
2022-12-06T09:55:58.658Z,2.08
2022-12-06T09:56:58.645Z,2.07
2022-12-06T09:57:58.633Z,2.11
2022-12-06T09:58:58.618Z,2.10
2022-12-06T09:59:58.912Z,2.13
2022-12-06T10:00:58.635Z,2.14
2022-12-06T10:01:58.656Z,2.24
2022-12-06T10:02:58.631Z,2.18
2022-12-06T10:03:58.553Z,2.26
2022-12-06T10:04:58.545Z,2.31
2022-12-06T10:05:58.526Z,2.29
2022-12-06T10:06:58.520Z,2.31
2022-12-06T10:07:58.784Z,2.36
2022-12-06T10:08:58.641Z,2.44
2022-12-06T10:09:58.959Z,2.47
2022-12-06T10:11:00.677Z,2.50
2022-12-06T10:11:58.451Z,2.61
2022-12-06T10:12:58.431Z,2.62
2022-12-06T10:13:58.424Z,2.68
2022-12-06T10:14:58.424Z,2.62
2022-12-06T10:15:58.532Z,2.60
2022-12-06T10:16:58.396Z,2.53
2022-12-06T10:17:58.383Z,2.60
2022-12-06T10:18:58.357Z,2.67
2022-12-06T10:19:58.691Z,2.77
2022-12-06T10:20:58.338Z,3.05
2022-12-06T10:21:58.330Z,3.47
2022-12-06T10:22:58.313Z,3.59
2022-12-06T10:24:01.854Z,3.81
2022-12-06T10:24:58.494Z,4.17
2022-12-06T10:25:58.272Z,4.41
2022-12-06T10:26:58.260Z,4.63
2022-12-06T10:27:58.249Z,4.66
2022-12-06T10:28:58.233Z,4.86
2022-12-06T10:29:58.686Z,5.39
2022-12-06T10:30:58.276Z,5.51
2022-12-06T10:31:58.331Z,5.59
2022-12-06T10:32:58.189Z,5.46
2022-12-06T10:33:58.186Z,5.41
2022-12-06T10:34:58.157Z,5.48
2022-12-06T10:35:58.154Z,5.61
2022-12-06T10:36:58.130Z,5.71
2022-12-06T10:37:58.121Z,5.65
2022-12-06T10:38:58.113Z,5.54
2022-12-06T10:39:58.088Z,5.56
2022-12-06T10:40:58.080Z,5.68
2022-12-06T10:41:58.069Z,5.50
2022-12-06T10:42:58.055Z,5.46
2022-12-06T10:43:58.037Z,5.23
2022-12-06T10:44:58.037Z,5.02
2022-12-06T10:45:58.017Z,5.02
2022-12-06T10:46:58.149Z,5.11
2022-12-06T10:47:58.020Z,4.89
2022-12-06T10:48:57.984Z,4.94
2022-12-06T10:49:58.098Z,4.87
2022-12-06T10:50:57.957Z,4.90
2022-12-06T10:51:57.934Z,4.84
2022-12-06T10:53:01.815Z,4.92
2022-12-06T10:53:57.909Z,5.02
2022-12-06T10:54:57.904Z,5.05
2022-12-06T10:55:57.883Z,5.04
2022-12-06T10:56:57.870Z,5.07
2022-12-06T10:57:57.859Z,5.10
2022-12-06T10:58:57.848Z,5.11
2022-12-06T11:00:02.968Z,5.14
2022-12-06T11:00:57.839Z,5.12
2022-12-06T11:01:57.896Z,5.00
2022-12-06T11:02:57.805Z,4.97
2022-12-06T11:03:57.800Z,4.93
2022-12-06T11:04:57.774Z,4.89
2022-12-06T11:05:57.752Z,4.89
2022-12-06T11:06:57.740Z,4.90
2022-12-06T11:07:57.797Z,4.92
2022-12-06T11:08:57.719Z,4.90
2022-12-06T11:09:58.000Z,4.96
2022-12-06T11:10:57.685Z,5.07
2022-12-06T11:11:57.687Z,5.14
2022-12-06T11:12:57.658Z,5.20
2022-12-06T11:13:57.674Z,5.30
2022-12-06T11:14:57.647Z,5.41
2022-12-06T11:15:57.681Z,5.47
2022-12-06T11:16:57.616Z,5.54
2022-12-06T11:18:02.301Z,5.64
2022-12-06T11:18:57.592Z,5.73
2022-12-06T11:19:57.926Z,5.79
2022-12-06T11:20:57.569Z,5.89
2022-12-06T11:21:57.546Z,5.91
2022-12-06T11:22:57.534Z,5.91
2022-12-06T11:23:57.520Z,5.86
2022-12-06T11:24:57.516Z,5.97
2022-12-06T11:25:57.498Z,6.01
2022-12-06T11:26:57.480Z,6.04
2022-12-06T11:27:57.473Z,6.05
2022-12-06T11:28:57.461Z,6.04
2022-12-06T11:29:57.555Z,5.97
2022-12-06T11:30:57.440Z,5.97
2022-12-06T11:31:57.571Z,5.93
2022-12-06T11:32:57.406Z,5.82
2022-12-06T11:33:57.400Z,5.75
2022-12-06T11:34:57.403Z,5.73
2022-12-06T11:35:57.397Z,5.75
2022-12-06T11:37:00.361Z,5.64
2022-12-06T11:37:57.352Z,5.64
2022-12-06T11:38:57.333Z,5.61
2022-12-06T11:39:57.445Z,5.61
2022-12-06T11:40:57.311Z,5.57
2022-12-06T11:41:57.312Z,5.35
2022-12-06T11:42:57.290Z,5.28
2022-12-06T11:43:57.268Z,5.23
2022-12-06T11:44:57.267Z,5.14
2022-12-06T11:45:57.247Z,5.14
2022-12-06T11:46:57.375Z,5.12
2022-12-06T11:47:57.218Z,5.10
2022-12-06T11:48:57.210Z,5.04
2022-12-06T11:49:58.669Z,5.07
2022-12-06T11:50:57.187Z,5.10
2022-12-06T11:51:57.196Z,5.05
2022-12-06T11:52:57.159Z,4.96
2022-12-06T11:53:57.153Z,4.97
2022-12-06T11:54:57.259Z,5.04
2022-12-06T11:55:57.119Z,5.08
2022-12-06T11:56:57.113Z,5.08
2022-12-06T11:57:57.102Z,5.07
2022-12-06T11:58:57.096Z,5.05
2022-12-06T11:59:57.401Z,5.00
2022-12-06T12:00:57.072Z,5.04
2022-12-06T12:01:57.112Z,5.10
2022-12-06T12:02:57.084Z,5.14
2022-12-06T12:03:57.032Z,5.17
2022-12-06T12:04:57.071Z,5.18
2022-12-06T12:05:57.003Z,5.21
2022-12-06T12:06:56.997Z,5.25
2022-12-06T12:07:57.050Z,5.26
2022-12-06T12:08:56.967Z,5.23
2022-12-06T12:09:56.958Z,5.20
2022-12-06T12:10:56.942Z,5.18
2022-12-06T12:11:56.929Z,5.21
2022-12-06T12:12:56.920Z,5.17
2022-12-06T12:13:56.909Z,5.18
2022-12-06T12:14:56.895Z,5.23
2022-12-06T12:15:56.891Z,5.20
2022-12-06T12:16:56.944Z,5.20
2022-12-06T12:17:56.855Z,5.21
2022-12-06T12:18:56.843Z,5.14
2022-12-06T12:19:56.825Z,5.15
2022-12-06T12:20:56.814Z,5.17
2022-12-06T12:21:56.801Z,5.20
2022-12-06T12:22:56.803Z,5.18
2022-12-06T12:23:56.829Z,5.21
2022-12-06T12:25:17.892Z,5.23
2022-12-06T12:25:57.788Z,5.23
2022-12-06T12:26:56.740Z,5.26
2022-12-06T12:27:56.724Z,5.21
2022-12-06T12:28:56.710Z,5.20
2022-12-06T12:29:56.706Z,5.21
2022-12-06T12:30:56.682Z,5.23
2022-12-06T12:31:56.764Z,5.25
2022-12-06T12:32:56.651Z,5.23
2022-12-06T12:33:56.648Z,5.23
2022-12-06T12:34:56.633Z,5.23
2022-12-06T12:35:56.621Z,5.25
2022-12-06T12:36:56.613Z,5.20
2022-12-06T12:37:56.601Z,5.25
2022-12-06T12:38:56.585Z,5.26
2022-12-06T12:39:56.598Z,5.26
2022-12-06T12:40:56.566Z,5.35
2022-12-06T12:41:56.544Z,5.35
2022-12-06T12:42:56.529Z,5.36
2022-12-06T12:44:13.851Z,5.41
2022-12-06T12:44:57.683Z,5.43
2022-12-06T12:46:01.160Z,5.41
2022-12-06T12:46:57.529Z,5.41
2022-12-06T12:47:56.475Z,5.39
2022-12-06T12:48:56.465Z,5.35
2022-12-06T12:49:56.453Z,5.33
2022-12-06T12:50:56.428Z,5.36
2022-12-06T12:51:56.417Z,5.38
2022-12-06T12:52:56.405Z,5.43
2022-12-06T12:53:56.396Z,5.46
2022-12-06T12:54:56.382Z,5.48
2022-12-06T12:55:56.393Z,5.48
2022-12-06T12:56:56.372Z,5.50
2022-12-06T12:57:56.350Z,5.50
2022-12-06T12:58:56.339Z,5.51
2022-12-06T12:59:56.325Z,5.53
2022-12-06T13:00:56.396Z,5.51
2022-12-06T13:01:56.502Z,5.51
2022-12-06T13:02:56.357Z,5.51
2022-12-06T13:03:56.276Z,5.54
2022-12-06T13:05:17.371Z,5.56
2022-12-06T13:05:57.285Z,5.54
2022-12-06T13:06:56.244Z,5.56